< Cyclone 199701 1997 Season Cyclone 199703 >
Cyclone 199702 (MELANIE)
General InformationTrack Information on Google MapsDetailed Wind InformationList of All Images || ResourceGoogle EarthGE AnimationAtom FeedGeoJSON
Detalied Best Track (Time Zone = UTC)
Year Month Day Hour Lat. Long. Pressure (hPa) Wind (kt) Class Image Chart
1996 10 28 10 -9.0 97.8 1002 23 2 Image --
1996 10 28 22 -9.2 97.1 1000 27 2 Image --
1996 10 29 10 -9.5 96.4 1000 27 2 Image --
1996 10 29 22 -9.8 96.0 1000 27 2 Image --
1996 10 30 07 -10.0 95.6 1000 27 2 Image --
1996 10 30 10 -10.0 95.4 998 29 2 Image --
1996 10 30 22 -9.9 95.3 998 29 2 Image --
1996 10 31 01 -9.8 95.2 998 29 2 Image --
1996 10 31 10 -9.2 94.4 998 29 2 Image --
1996 10 31 16 -8.9 93.6 995 35 3 Image --
1996 10 31 22 -8.6 92.6 990 41 3 Image --
1996 11 1 01 -8.5 92.2 990 41 3 Image --
1996 11 1 04 -8.5 91.8 990 41 3 Image --
1996 11 1 10 -8.5 91.0 990 41 3 Image --
1996 11 1 16 -8.5 90.2 990 41 3 Image --
1996 11 1 22 -8.5 89.4 985 47 3 Image --
1996 11 2 01 -8.5 89.0 985 47 3 Image --
1996 11 2 04 -8.5 88.7 985 47 3 Image --
1996 11 2 10 -8.6 88.2 980 54 4 Image --
1996 11 2 22 -9.3 87.2 965 70 5 Image --
1996 11 3 04 -9.3 86.8 960 76 5 Image --
1996 11 3 07 -9.9 86.7 955 80 5 Image --
1996 11 3 10 -10.0 86.6 950 84 5 Image --
1996 11 3 16 -10.1 86.0 940 93 5 Image --
1996 11 3 22 -10.2 85.6 925 105 5 Image --
1996 11 4 04 -10.3 85.4 920 107 5 Image --
1996 11 4 10 -10.3 85.2 920 107 5 Image --
1996 11 5 01 -10.5 84.7 945 89 5 Image --
1996 11 5 04 -10.5 84.5 950 84 5 Image --
1996 11 5 07 -10.6 84.2 955 80 5 Image --
1996 11 5 10 -10.8 83.9 950 84 5 Image --
1996 11 5 22 -11.2 82.5 945 89 5 Image --
1996 11 6 07 -11.4 81.3 935 97 5 Image --
1996 11 6 10 -11.5 80.9 930 101 5 Image --
1996 11 6 16 -11.6 80.2 935 97 5 Image --
< Cyclone 199701 1997 Season Cyclone 199703 >

Help